sensor_id;sensor_type;location;lat;lon;timestamp;temperature;humidity
79187;SHT31;68762;51.980;5.646;2024-03-17T00:00:06;9.1;63.5
79187;SHT31;68762;51.980;5.646;2024-03-17T00:02:36;9.1;64.2
79187;SHT31;68762;51.980;5.646;2024-03-17T00:05:08;9.1;64.3
79187;SHT31;68762;51.980;5.646;2024-03-17T00:07:36;9.1;64.1
79187;SHT31;68762;51.980;5.646;2024-03-17T00:10:06;9.1;63.9
79187;SHT31;68762;51.980;5.646;2024-03-17T00:12:36;9.1;64.3
79187;SHT31;68762;51.980;5.646;2024-03-17T00:15:05;9.1;64.2
79187;SHT31;68762;51.980;5.646;2024-03-17T00:17:34;9.1;63.9
79187;SHT31;68762;51.980;5.646;2024-03-17T00:20:04;9.1;63.9
79187;SHT31;68762;51.980;5.646;2024-03-17T00:22:35;9.1;63.9
79187;SHT31;68762;51.980;5.646;2024-03-17T00:25:07;9.1;63.6
79187;SHT31;68762;51.980;5.646;2024-03-17T00:27:36;9.1;63.6
79187;SHT31;68762;51.980;5.646;2024-03-17T00:30:08;9.1;63.4
79187;SHT31;68762;51.980;5.646;2024-03-17T00:32:39;9.1;63.9
79187;SHT31;68762;51.980;5.646;2024-03-17T00:35:10;9.1;63.6
79187;SHT31;68762;51.980;5.646;2024-03-17T00:37:40;9.0;64.0
79187;SHT31;68762;51.980;5.646;2024-03-17T00:40:09;9.0;64.0
79187;SHT31;68762;51.980;5.646;2024-03-17T00:42:38;9.0;64.1
79187;SHT31;68762;51.980;5.646;2024-03-17T00:45:07;9.0;64.5
79187;SHT31;68762;51.980;5.646;2024-03-17T00:47:37;9.0;64.2
79187;SHT31;68762;51.980;5.646;2024-03-17T00:50:06;9.0;64.4
79187;SHT31;68762;51.980;5.646;2024-03-17T00:52:38;8.9;64.7
79187;SHT31;68762;51.980;5.646;2024-03-17T00:55:06;8.9;64.7
79187;SHT31;68762;51.980;5.646;2024-03-17T00:57:36;8.9;64.9
79187;SHT31;68762;51.980;5.646;2024-03-17T01:00:06;8.9;64.7
79187;SHT31;68762;51.980;5.646;2024-03-17T01:02:36;8.9;65.0
79187;SHT31;68762;51.980;5.646;2024-03-17T01:05:06;8.9;65.0
79187;SHT31;68762;51.980;5.646;2024-03-17T01:07:35;8.9;64.9
79187;SHT31;68762;51.980;5.646;2024-03-17T01:10:04;8.9;64.9
79187;SHT31;68762;51.980;5.646;2024-03-17T01:12:34;8.9;64.9
79187;SHT31;68762;51.980;5.646;2024-03-17T01:15:05;8.9;65.1
79187;SHT31;68762;51.980;5.646;2024-03-17T01:17:34;8.9;65.0
79187;SHT31;68762;51.980;5.646;2024-03-17T01:20:03;8.9;65.2
79187;SHT31;68762;51.980;5.646;2024-03-17T01:22:32;8.9;65.1
79187;SHT31;68762;51.980;5.646;2024-03-17T01:25:01;8.9;65.1
79187;SHT31;68762;51.980;5.646;2024-03-17T01:27:29;8.9;65.1
79187;SHT31;68762;51.980;5.646;2024-03-17T01:29:58;8.9;65.2
79187;SHT31;68762;51.980;5.646;2024-03-17T01:32:28;8.9;65.3
79187;SHT31;68762;51.980;5.646;2024-03-17T01:34:57;8.9;65.2
79187;SHT31;68762;51.980;5.646;2024-03-17T01:37:25;8.9;65.2
79187;SHT31;68762;51.980;5.646;2024-03-17T01:39:58;8.8;65.4
79187;SHT31;68762;51.980;5.646;2024-03-17T01:42:28;8.8;65.3
79187;SHT31;68762;51.980;5.646;2024-03-17T01:44:57;8.8;65.2
79187;SHT31;68762;51.980;5.646;2024-03-17T01:47:26;8.8;65.2
79187;SHT31;68762;51.980;5.646;2024-03-17T01:49:55;8.8;65.2
79187;SHT31;68762;51.980;5.646;2024-03-17T01:52:24;8.8;65.2
79187;SHT31;68762;51.980;5.646;2024-03-17T01:54:52;8.8;65.2
79187;SHT31;68762;51.980;5.646;2024-03-17T01:57:23;8.8;65.2
79187;SHT31;68762;51.980;5.646;2024-03-17T01:59:52;8.8;65.5
79187;SHT31;68762;51.980;5.646;2024-03-17T02:02:20;8.8;65.5
79187;SHT31;68762;51.980;5.646;2024-03-17T02:04:49;8.8;65.4
79187;SHT31;68762;51.980;5.646;2024-03-17T02:07:19;8.8;65.1
79187;SHT31;68762;51.980;5.646;2024-03-17T02:09:47;8.8;65.1
79187;SHT31;68762;51.980;5.646;2024-03-17T02:12:16;8.8;65.0
79187;SHT31;68762;51.980;5.646;2024-03-17T02:14:45;8.8;64.8
79187;SHT31;68762;51.980;5.646;2024-03-17T02:17:13;8.7;65.0
79187;SHT31;68762;51.980;5.646;2024-03-17T02:19:43;8.7;64.6
79187;SHT31;68762;51.980;5.646;2024-03-17T02:22:13;8.7;64.8
79187;SHT31;68762;51.980;5.646;2024-03-17T02:24:43;8.7;64.2
79187;SHT31;68762;51.980;5.646;2024-03-17T02:27:13;8.7;64.4
79187;SHT31;68762;51.980;5.646;2024-03-17T02:29:42;8.7;64.4
79187;SHT31;68762;51.980;5.646;2024-03-17T02:32:12;8.7;64.2
79187;SHT31;68762;51.980;5.646;2024-03-17T02:34:40;8.8;64.9
79187;SHT31;68762;51.980;5.646;2024-03-17T02:37:13;8.8;64.7
79187;SHT31;68762;51.980;5.646;2024-03-17T02:39:41;8.8;64.3
79187;SHT31;68762;51.980;5.646;2024-03-17T02:42:10;8.8;64.0
79187;SHT31;68762;51.980;5.646;2024-03-17T02:44:39;8.9;63.9
79187;SHT31;68762;51.980;5.646;2024-03-17T02:47:08;8.9;63.8
79187;SHT31;68762;51.980;5.646;2024-03-17T02:49:37;8.9;63.2
79187;SHT31;68762;51.980;5.646;2024-03-17T02:52:07;8.9;63.4
79187;SHT31;68762;51.980;5.646;2024-03-17T02:54:36;8.9;63.3
79187;SHT31;68762;51.980;5.646;2024-03-17T02:57:06;9.0;63.3
79187;SHT31;68762;51.980;5.646;2024-03-17T02:59:35;9.0;63.2
79187;SHT31;68762;51.980;5.646;2024-03-17T03:02:03;9.0;63.4
79187;SHT31;68762;51.980;5.646;2024-03-17T03:04:33;9.0;63.6
79187;SHT31;68762;51.980;5.646;2024-03-17T03:07:01;9.1;63.5
79187;SHT31;68762;51.980;5.646;2024-03-17T03:09:30;9.1;63.2
79187;SHT31;68762;51.980;5.646;2024-03-17T03:11:59;9.1;63.3
79187;SHT31;68762;51.980;5.646;2024-03-17T03:14:29;9.1;63.5
79187;SHT31;68762;51.980;5.646;2024-03-17T03:16:58;9.1;63.5
79187;SHT31;68762;51.980;5.646;2024-03-17T03:19:27;9.2;63.7
79187;SHT31;68762;51.980;5.646;2024-03-17T03:21:56;9.2;63.2
79187;SHT31;68762;51.980;5.646;2024-03-17T03:24:25;9.2;63.5
79187;SHT31;68762;51.980;5.646;2024-03-17T03:26:53;9.2;63.6
79187;SHT31;68762;51.980;5.646;2024-03-17T03:29:22;9.3;63.8
79187;SHT31;68762;51.980;5.646;2024-03-17T03:31:50;9.3;63.2
79187;SHT31;68762;51.980;5.646;2024-03-17T03:34:19;9.3;63.6
79187;SHT31;68762;51.980;5.646;2024-03-17T03:36:47;9.3;63.4
79187;SHT31;68762;51.980;5.646;2024-03-17T03:39:16;9.3;63.5
79187;SHT31;68762;51.980;5.646;2024-03-17T03:41:46;9.4;63.9
79187;SHT31;68762;51.980;5.646;2024-03-17T03:44:14;9.4;63.5
79187;SHT31;68762;51.980;5.646;2024-03-17T03:46:44;9.4;63.0
79187;SHT31;68762;51.980;5.646;2024-03-17T03:49:13;9.4;63.4
79187;SHT31;68762;51.980;5.646;2024-03-17T03:51:42;9.4;63.2
79187;SHT31;68762;51.980;5.646;2024-03-17T03:54:10;9.4;63.2
79187;SHT31;68762;51.980;5.646;2024-03-17T03:56:39;9.4;63.0
79187;SHT31;68762;51.980;5.646;2024-03-17T03:59:07;9.4;63.0
79187;SHT31;68762;51.980;5.646;2024-03-17T04:01:36;9.4;63.0
79187;SHT31;68762;51.980;5.646;2024-03-17T04:04:04;9.4;63.2
79187;SHT31;68762;51.980;5.646;2024-03-17T04:06:33;9.4;63.3
79187;SHT31;68762;51.980;5.646;2024-03-17T04:09:04;9.4;63.4
79187;SHT31;68762;51.980;5.646;2024-03-17T04:11:33;9.4;63.5
79187;SHT31;68762;51.980;5.646;2024-03-17T04:14:02;9.4;63.4
79187;SHT31;68762;51.980;5.646;2024-03-17T04:16:33;9.4;63.6
79187;SHT31;68762;51.980;5.646;2024-03-17T04:19:01;9.4;63.7
79187;SHT31;68762;51.980;5.646;2024-03-17T04:21:32;9.4;63.5
79187;SHT31;68762;51.980;5.646;2024-03-17T04:24:00;9.4;63.5
79187;SHT31;68762;51.980;5.646;2024-03-17T04:26:29;9.4;63.7
79187;SHT31;68762;51.980;5.646;2024-03-17T04:28:57;9.4;63.8
79187;SHT31;68762;51.980;5.646;2024-03-17T04:31:27;9.4;63.9
79187;SHT31;68762;51.980;5.646;2024-03-17T04:33:56;9.3;64.1
79187;SHT31;68762;51.980;5.646;2024-03-17T04:36:24;9.3;63.8
79187;SHT31;68762;51.980;5.646;2024-03-17T04:38:54;9.3;63.9
79187;SHT31;68762;51.980;5.646;2024-03-17T04:41:25;9.3;64.0
79187;SHT31;68762;51.980;5.646;2024-03-17T04:43:54;9.3;64.2
79187;SHT31;68762;51.980;5.646;2024-03-17T04:46:22;9.3;63.9
79187;SHT31;68762;51.980;5.646;2024-03-17T04:48:52;9.3;64.2
79187;SHT31;68762;51.980;5.646;2024-03-17T04:51:22;9.3;64.1
79187;SHT31;68762;51.980;5.646;2024-03-17T04:53:51;9.3;64.3
79187;SHT31;68762;51.980;5.646;2024-03-17T04:56:20;9.3;64.1
79187;SHT31;68762;51.980;5.646;2024-03-17T04:58:49;9.3;64.4
79187;SHT31;68762;51.980;5.646;2024-03-17T05:01:19;9.3;63.9
79187;SHT31;68762;51.980;5.646;2024-03-17T05:03:51;9.3;64.0
79187;SHT31;68762;51.980;5.646;2024-03-17T05:06:19;9.3;64.2
79187;SHT31;68762;51.980;5.646;2024-03-17T05:08:48;9.3;64.4
79187;SHT31;68762;51.980;5.646;2024-03-17T05:11:16;9.4;64.3
79187;SHT31;68762;51.980;5.646;2024-03-17T05:13:46;9.4;64.5
79187;SHT31;68762;51.980;5.646;2024-03-17T05:16:14;9.4;64.3
79187;SHT31;68762;51.980;5.646;2024-03-17T05:18:44;9.4;64.4
79187;SHT31;68762;51.980;5.646;2024-03-17T05:21:12;9.4;64.4
79187;SHT31;68762;51.980;5.646;2024-03-17T05:23:41;9.4;64.6
79187;SHT31;68762;51.980;5.646;2024-03-17T05:26:09;9.4;64.4
79187;SHT31;68762;51.980;5.646;2024-03-17T05:28:39;9.4;64.5
79187;SHT31;68762;51.980;5.646;2024-03-17T05:31:07;9.4;64.3
79187;SHT31;68762;51.980;5.646;2024-03-17T05:33:36;9.4;64.4
79187;SHT31;68762;51.980;5.646;2024-03-17T05:36:05;9.4;64.4
79187;SHT31;68762;51.980;5.646;2024-03-17T05:38:33;9.4;64.3
79187;SHT31;68762;51.980;5.646;2024-03-17T05:41:04;9.4;64.5
79187;SHT31;68762;51.980;5.646;2024-03-17T05:43:34;9.4;64.2
79187;SHT31;68762;51.980;5.646;2024-03-17T05:46:05;9.5;64.3
79187;SHT31;68762;51.980;5.646;2024-03-17T05:48:35;9.5;64.4
79187;SHT31;68762;51.980;5.646;2024-03-17T05:51:06;9.5;64.2
79187;SHT31;68762;51.980;5.646;2024-03-17T05:53:36;9.5;64.3
79187;SHT31;68762;51.980;5.646;2024-03-17T05:56:07;9.5;64.3
79187;SHT31;68762;51.980;5.646;2024-03-17T05:58:36;9.5;64.4
79187;SHT31;68762;51.980;5.646;2024-03-17T06:01:05;9.5;64.9
79187;SHT31;68762;51.980;5.646;2024-03-17T06:03:35;9.5;64.8
79187;SHT31;68762;51.980;5.646;2024-03-17T06:06:05;9.5;64.5
79187;SHT31;68762;51.980;5.646;2024-03-17T06:08:36;9.5;64.3
79187;SHT31;68762;51.980;5.646;2024-03-17T06:11:05;9.5;64.4
79187;SHT31;68762;51.980;5.646;2024-03-17T06:13:34;9.5;64.2
79187;SHT31;68762;51.980;5.646;2024-03-17T06:16:04;9.5;64.4
79187;SHT31;68762;51.980;5.646;2024-03-17T06:18:33;9.5;64.4
79187;SHT31;68762;51.980;5.646;2024-03-17T06:21:05;9.5;64.1
79187;SHT31;68762;51.980;5.646;2024-03-17T06:23:35;9.5;64.3
79187;SHT31;68762;51.980;5.646;2024-03-17T06:26:04;9.5;64.4
79187;SHT31;68762;51.980;5.646;2024-03-17T06:28:34;9.5;64.0
79187;SHT31;68762;51.980;5.646;2024-03-17T06:31:02;9.5;64.0
79187;SHT31;68762;51.980;5.646;2024-03-17T06:33:33;9.5;63.7
79187;SHT31;68762;51.980;5.646;2024-03-17T06:36:04;9.6;63.8
79187;SHT31;68762;51.980;5.646;2024-03-17T06:38:33;9.6;64.0
79187;SHT31;68762;51.980;5.646;2024-03-17T06:41:02;9.6;64.0
79187;SHT31;68762;51.980;5.646;2024-03-17T06:43:30;9.6;64.1
79187;SHT31;68762;51.980;5.646;2024-03-17T06:46:00;9.6;63.9
79187;SHT31;68762;51.980;5.646;2024-03-17T06:48:28;9.6;63.7
79187;SHT31;68762;51.980;5.646;2024-03-17T06:50:57;9.6;63.4
79187;SHT31;68762;51.980;5.646;2024-03-17T06:53:25;9.7;63.7
79187;SHT31;68762;51.980;5.646;2024-03-17T06:55:56;9.7;63.7
79187;SHT31;68762;51.980;5.646;2024-03-17T06:58:26;9.7;63.5
79187;SHT31;68762;51.980;5.646;2024-03-17T07:00:57;9.7;63.3
79187;SHT31;68762;51.980;5.646;2024-03-17T07:03:29;9.8;63.5
79187;SHT31;68762;51.980;5.646;2024-03-17T07:05:59;9.8;63.8
79187;SHT31;68762;51.980;5.646;2024-03-17T07:08:30;9.8;64.1
79187;SHT31;68762;51.980;5.646;2024-03-17T07:11:01;9.9;64.0
79187;SHT31;68762;51.980;5.646;2024-03-17T07:13:33;9.9;64.3
79187;SHT31;68762;51.980;5.646;2024-03-17T07:16:04;9.9;63.6
79187;SHT31;68762;51.980;5.646;2024-03-17T07:18:34;10.0;63.9
79187;SHT31;68762;51.980;5.646;2024-03-17T07:21:04;10.0;64.1
79187;SHT31;68762;51.980;5.646;2024-03-17T07:23:36;10.1;63.8
79187;SHT31;68762;51.980;5.646;2024-03-17T07:26:06;10.1;64.3
79187;SHT31;68762;51.980;5.646;2024-03-17T07:28:36;10.1;64.1
79187;SHT31;68762;51.980;5.646;2024-03-17T07:31:09;10.2;64.3
79187;SHT31;68762;51.980;5.646;2024-03-17T07:33:38;10.2;64.2
79187;SHT31;68762;51.980;5.646;2024-03-17T07:36:08;10.3;64.2
79187;SHT31;68762;51.980;5.646;2024-03-17T07:38:38;10.3;64.4
79187;SHT31;68762;51.980;5.646;2024-03-17T07:41:09;10.4;64.0
79187;SHT31;68762;51.980;5.646;2024-03-17T07:43:38;10.4;63.8
79187;SHT31;68762;51.980;5.646;2024-03-17T07:46:09;10.4;64.2
79187;SHT31;68762;51.980;5.646;2024-03-17T07:48:40;10.5;63.7
79187;SHT31;68762;51.980;5.646;2024-03-17T07:51:12;10.5;64.0
79187;SHT31;68762;51.980;5.646;2024-03-17T07:53:42;10.6;63.2
79187;SHT31;68762;51.980;5.646;2024-03-17T07:56:12;10.7;63.0
79187;SHT31;68762;51.980;5.646;2024-03-17T07:58:42;10.8;61.7
79187;SHT31;68762;51.980;5.646;2024-03-17T08:01:13;10.8;61.8
79187;SHT31;68762;51.980;5.646;2024-03-17T08:03:44;10.9;61.6
79187;SHT31;68762;51.980;5.646;2024-03-17T08:06:13;11.0;62.2
79187;SHT31;68762;51.980;5.646;2024-03-17T08:08:42;11.0;63.2
79187;SHT31;68762;51.980;5.646;2024-03-17T08:11:12;11.1;61.4
79187;SHT31;68762;51.980;5.646;2024-03-17T08:13:40;11.3;61.5
79187;SHT31;68762;51.980;5.646;2024-03-17T08:16:09;11.4;60.5
79187;SHT31;68762;51.980;5.646;2024-03-17T08:18:38;11.5;59.7
79187;SHT31;68762;51.980;5.646;2024-03-17T08:21:06;11.6;59.4
79187;SHT31;68762;51.980;5.646;2024-03-17T08:23:36;11.6;59.4
79187;SHT31;68762;51.980;5.646;2024-03-17T08:26:08;11.7;59.2
79187;SHT31;68762;51.980;5.646;2024-03-17T08:28:36;11.7;59.1
79187;SHT31;68762;51.980;5.646;2024-03-17T08:31:07;11.8;59.6
79187;SHT31;68762;51.980;5.646;2024-03-17T08:33:38;11.9;58.3
79187;SHT31;68762;51.980;5.646;2024-03-17T08:36:10;11.9;58.1
79187;SHT31;68762;51.980;5.646;2024-03-17T08:38:38;12.0;57.5
79187;SHT31;68762;51.980;5.646;2024-03-17T08:41:08;12.0;57.5
79187;SHT31;68762;51.980;5.646;2024-03-17T08:43:37;12.1;58.5
79187;SHT31;68762;51.980;5.646;2024-03-17T08:46:09;12.1;58.0
79187;SHT31;68762;51.980;5.646;2024-03-17T08:48:41;12.2;58.0
79187;SHT31;68762;51.980;5.646;2024-03-17T08:51:10;12.2;57.4
79187;SHT31;68762;51.980;5.646;2024-03-17T08:53:38;12.3;57.6
79187;SHT31;68762;51.980;5.646;2024-03-17T08:56:10;12.3;56.9
79187;SHT31;68762;51.980;5.646;2024-03-17T08:58:38;12.3;56.9
79187;SHT31;68762;51.980;5.646;2024-03-17T09:01:07;12.3;57.1
79187;SHT31;68762;51.980;5.646;2024-03-17T09:03:36;12.4;56.9
79187;SHT31;68762;51.980;5.646;2024-03-17T09:06:15;12.4;57.2
79187;SHT31;68762;51.980;5.646;2024-03-17T09:08:46;12.4;56.6
79187;SHT31;68762;51.980;5.646;2024-03-17T09:11:15;12.4;56.8
79187;SHT31;68762;51.980;5.646;2024-03-17T09:13:43;12.5;57.5
79187;SHT31;68762;51.980;5.646;2024-03-17T09:16:12;12.5;57.3
79187;SHT31;68762;51.980;5.646;2024-03-17T09:18:41;12.6;58.1
79187;SHT31;68762;51.980;5.646;2024-03-17T09:21:09;12.6;57.2
79187;SHT31;68762;51.980;5.646;2024-03-17T09:23:41;12.7;56.7
79187;SHT31;68762;51.980;5.646;2024-03-17T09:26:11;12.7;57.3
79187;SHT31;68762;51.980;5.646;2024-03-17T09:28:40;12.8;57.2
79187;SHT31;68762;51.980;5.646;2024-03-17T09:31:10;12.8;56.2
79187;SHT31;68762;51.980;5.646;2024-03-17T09:33:39;12.9;56.8
79187;SHT31;68762;51.980;5.646;2024-03-17T09:36:09;12.9;57.2
79187;SHT31;68762;51.980;5.646;2024-03-17T09:38:39;13.0;55.8
79187;SHT31;68762;51.980;5.646;2024-03-17T09:41:19;13.0;56.3
79187;SHT31;68762;51.980;5.646;2024-03-17T09:43:48;13.1;56.5
79187;SHT31;68762;51.980;5.646;2024-03-17T09:46:18;13.1;56.1
79187;SHT31;68762;51.980;5.646;2024-03-17T09:48:47;13.2;55.5
79187;SHT31;68762;51.980;5.646;2024-03-17T09:51:19;13.3;54.8
79187;SHT31;68762;51.980;5.646;2024-03-17T09:53:48;13.3;55.3
79187;SHT31;68762;51.980;5.646;2024-03-17T09:56:19;13.4;55.3
79187;SHT31;68762;51.980;5.646;2024-03-17T09:58:50;13.5;55.4
79187;SHT31;68762;51.980;5.646;2024-03-17T10:01:19;13.6;55.0
79187;SHT31;68762;51.980;5.646;2024-03-17T10:03:49;13.7;54.9
79187;SHT31;68762;51.980;5.646;2024-03-17T10:06:22;13.9;54.4
79187;SHT31;68762;51.980;5.646;2024-03-17T10:08:55;14.0;53.9
79187;SHT31;68762;51.980;5.646;2024-03-17T10:11:34;14.1;53.5
79187;SHT31;68762;51.980;5.646;2024-03-17T10:14:04;14.3;53.5
79187;SHT31;68762;51.980;5.646;2024-03-17T10:16:37;14.4;53.1
79187;SHT31;68762;51.980;5.646;2024-03-17T10:19:11;14.5;51.7
79187;SHT31;68762;51.980;5.646;2024-03-17T10:21:41;14.7;51.7
79187;SHT31;68762;51.980;5.646;2024-03-17T10:24:12;14.8;52.6
79187;SHT31;68762;51.980;5.646;2024-03-17T10:26:46;14.9;52.9
79187;SHT31;68762;51.980;5.646;2024-03-17T10:29:27;15.0;52.4
79187;SHT31;68762;51.980;5.646;2024-03-17T10:31:58;15.1;52.8
79187;SHT31;68762;51.980;5.646;2024-03-17T10:34:30;15.3;52.2
79187;SHT31;68762;51.980;5.646;2024-03-17T10:37:06;15.3;51.0
79187;SHT31;68762;51.980;5.646;2024-03-17T10:39:40;15.4;50.6
79187;SHT31;68762;51.980;5.646;2024-03-17T10:42:10;15.5;50.1
79187;SHT31;68762;51.980;5.646;2024-03-17T10:44:40;15.5;50.9
79187;SHT31;68762;51.980;5.646;2024-03-17T10:47:20;15.5;50.4
79187;SHT31;68762;51.980;5.646;2024-03-17T10:49:50;15.6;49.5
79187;SHT31;68762;51.980;5.646;2024-03-17T10:52:20;15.6;50.9
79187;SHT31;68762;51.980;5.646;2024-03-17T10:54:50;15.6;50.3
79187;SHT31;68762;51.980;5.646;2024-03-17T10:57:27;15.6;51.1
79187;SHT31;68762;51.980;5.646;2024-03-17T10:59:59;15.6;50.8
79187;SHT31;68762;51.980;5.646;2024-03-17T11:02:31;15.7;50.8
79187;SHT31;68762;51.980;5.646;2024-03-17T11:05:03;15.7;50.9
79187;SHT31;68762;51.980;5.646;2024-03-17T11:07:34;15.7;50.7
79187;SHT31;68762;51.980;5.646;2024-03-17T11:10:06;15.7;51.2
79187;SHT31;68762;51.980;5.646;2024-03-17T11:12:46;15.7;50.8
79187;SHT31;68762;51.980;5.646;2024-03-17T11:15:39;15.8;51.8
79187;SHT31;68762;51.980;5.646;2024-03-17T11:18:42;15.9;51.0
79187;SHT31;68762;51.980;5.646;2024-03-17T11:21:24;15.9;51.5
79187;SHT31;68762;51.980;5.646;2024-03-17T11:23:59;16.0;50.9
79187;SHT31;68762;51.980;5.646;2024-03-17T11:26:29;16.1;50.8
79187;SHT31;68762;51.980;5.646;2024-03-17T11:28:59;16.1;49.5
79187;SHT31;68762;51.980;5.646;2024-03-17T11:31:37;16.1;51.0
79187;SHT31;68762;51.980;5.646;2024-03-17T11:38:57;16.2;50.3
79187;SHT31;68762;51.980;5.646;2024-03-17T11:41:35;16.2;49.5
79187;SHT31;68762;51.980;5.646;2024-03-17T11:44:26;16.2;49.9
79187;SHT31;68762;51.980;5.646;2024-03-17T11:46:57;16.2;49.5
79187;SHT31;68762;51.980;5.646;2024-03-17T11:49:28;16.2;50.4
79187;SHT31;68762;51.980;5.646;2024-03-17T11:51:59;16.2;49.9
79187;SHT31;68762;51.980;5.646;2024-03-17T11:54:29;16.2;49.9
79187;SHT31;68762;51.980;5.646;2024-03-17T11:57:02;16.1;50.7
79187;SHT31;68762;51.980;5.646;2024-03-17T11:59:32;16.1;50.9
79187;SHT31;68762;51.980;5.646;2024-03-17T12:02:01;16.1;50.8
79187;SHT31;68762;51.980;5.646;2024-03-17T12:04:30;16.1;50.7
79187;SHT31;68762;51.980;5.646;2024-03-17T12:06:59;16.0;51.4
79187;SHT31;68762;51.980;5.646;2024-03-17T12:09:30;16.0;51.6
79187;SHT31;68762;51.980;5.646;2024-03-17T12:12:02;16.0;52.0
79187;SHT31;68762;51.980;5.646;2024-03-17T12:14:34;15.9;52.0
79187;SHT31;68762;51.980;5.646;2024-03-17T12:17:04;15.9;52.7
79187;SHT31;68762;51.980;5.646;2024-03-17T12:19:34;15.9;52.0
79187;SHT31;68762;51.980;5.646;2024-03-17T12:22:05;15.9;52.5
79187;SHT31;68762;51.980;5.646;2024-03-17T12:24:36;15.9;52.7
79187;SHT31;68762;51.980;5.646;2024-03-17T12:27:06;15.9;52.2
79187;SHT31;68762;51.980;5.646;2024-03-17T12:29:36;15.9;53.5
79187;SHT31;68762;51.980;5.646;2024-03-17T12:32:14;15.9;53.3
79187;SHT31;68762;51.980;5.646;2024-03-17T12:34:45;15.9;53.4
79187;SHT31;68762;51.980;5.646;2024-03-17T12:37:19;15.9;53.7
79187;SHT31;68762;51.980;5.646;2024-03-17T12:39:49;15.9;53.1
79187;SHT31;68762;51.980;5.646;2024-03-17T12:42:23;15.9;53.8
79187;SHT31;68762;51.980;5.646;2024-03-17T12:44:53;16.0;53.0
79187;SHT31;68762;51.980;5.646;2024-03-17T12:47:23;16.0;52.6
79187;SHT31;68762;51.980;5.646;2024-03-17T12:49:53;16.0;52.2
79187;SHT31;68762;51.980;5.646;2024-03-17T12:52:24;16.0;52.5
79187;SHT31;68762;51.980;5.646;2024-03-17T12:55:00;16.0;53.5
79187;SHT31;68762;51.980;5.646;2024-03-17T12:59:42;16.0;53.2
79187;SHT31;68762;51.980;5.646;2024-03-17T13:04:24;16.0;53.6
79187;SHT31;68762;51.980;5.646;2024-03-17T13:06:52;16.0;53.6
79187;SHT31;68762;51.980;5.646;2024-03-17T13:09:21;16.0;52.6
79187;SHT31;68762;51.980;5.646;2024-03-17T13:11:55;16.0;52.9
79187;SHT31;68762;51.980;5.646;2024-03-17T13:14:24;16.0;52.5
79187;SHT31;68762;51.980;5.646;2024-03-17T13:16:52;16.0;52.3
79187;SHT31;68762;51.980;5.646;2024-03-17T13:19:21;16.0;52.6
79187;SHT31;68762;51.980;5.646;2024-03-17T13:21:50;16.0;52.9
79187;SHT31;68762;51.980;5.646;2024-03-17T13:24:19;16.0;52.6
79187;SHT31;68762;51.980;5.646;2024-03-17T13:26:47;16.0;53.7
79187;SHT31;68762;51.980;5.646;2024-03-17T13:29:17;16.0;52.4
79187;SHT31;68762;51.980;5.646;2024-03-17T13:31:45;16.0;52.8
79187;SHT31;68762;51.980;5.646;2024-03-17T13:34:16;16.0;52.7
79187;SHT31;68762;51.980;5.646;2024-03-17T13:36:44;16.0;53.2
79187;SHT31;68762;51.980;5.646;2024-03-17T13:39:13;16.0;53.6
79187;SHT31;68762;51.980;5.646;2024-03-17T13:41:45;16.0;53.7
79187;SHT31;68762;51.980;5.646;2024-03-17T13:44:15;15.9;53.5
79187;SHT31;68762;51.980;5.646;2024-03-17T13:46:44;15.9;53.7
79187;SHT31;68762;51.980;5.646;2024-03-17T13:49:14;15.9;53.3
79187;SHT31;68762;51.980;5.646;2024-03-17T13:51:45;15.9;53.3
79187;SHT31;68762;51.980;5.646;2024-03-17T13:54:15;15.9;53.7
79187;SHT31;68762;51.980;5.646;2024-03-17T13:56:46;15.9;53.5
79187;SHT31;68762;51.980;5.646;2024-03-17T13:59:15;15.9;53.4
79187;SHT31;68762;51.980;5.646;2024-03-17T14:01:44;15.9;54.0
79187;SHT31;68762;51.980;5.646;2024-03-17T14:04:16;15.9;54.4
79187;SHT31;68762;51.980;5.646;2024-03-17T14:06:46;15.9;54.0
79187;SHT31;68762;51.980;5.646;2024-03-17T14:09:17;15.9;54.1
79187;SHT31;68762;51.980;5.646;2024-03-17T14:11:46;16.0;53.7
79187;SHT31;68762;51.980;5.646;2024-03-17T14:14:18;16.0;53.8
79187;SHT31;68762;51.980;5.646;2024-03-17T14:16:47;16.0;53.5
79187;SHT31;68762;51.980;5.646;2024-03-17T14:19:15;16.0;53.5
79187;SHT31;68762;51.980;5.646;2024-03-17T14:21:44;16.0;53.5
79187;SHT31;68762;51.980;5.646;2024-03-17T14:24:13;16.0;53.7
79187;SHT31;68762;51.980;5.646;2024-03-17T14:26:42;16.0;54.4
79187;SHT31;68762;51.980;5.646;2024-03-17T14:29:11;16.1;53.5
79187;SHT31;68762;51.980;5.646;2024-03-17T14:31:39;16.1;53.3
79187;SHT31;68762;51.980;5.646;2024-03-17T14:34:10;16.2;53.7
79187;SHT31;68762;51.980;5.646;2024-03-17T14:36:39;16.2;53.9
79187;SHT31;68762;51.980;5.646;2024-03-17T14:39:08;16.3;53.4
79187;SHT31;68762;51.980;5.646;2024-03-17T14:41:37;16.4;52.5
79187;SHT31;68762;51.980;5.646;2024-03-17T14:44:05;16.5;52.5
79187;SHT31;68762;51.980;5.646;2024-03-17T14:46:34;16.5;52.2
79187;SHT31;68762;51.980;5.646;2024-03-17T14:49:04;16.5;52.0
79187;SHT31;68762;51.980;5.646;2024-03-17T14:51:42;16.6;52.1
79187;SHT31;68762;51.980;5.646;2024-03-17T14:54:11;16.6;53.3
79187;SHT31;68762;51.980;5.646;2024-03-17T14:56:40;16.6;53.0
79187;SHT31;68762;51.980;5.646;2024-03-17T14:59:08;16.6;52.8
79187;SHT31;68762;51.980;5.646;2024-03-17T15:01:38;16.7;52.3
79187;SHT31;68762;51.980;5.646;2024-03-17T15:04:07;16.7;51.5
79187;SHT31;68762;51.980;5.646;2024-03-17T15:06:35;16.7;52.0
79187;SHT31;68762;51.980;5.646;2024-03-17T15:09:04;16.7;52.2
79187;SHT31;68762;51.980;5.646;2024-03-17T15:11:34;16.7;52.1
79187;SHT31;68762;51.980;5.646;2024-03-17T15:14:03;16.7;52.6
79187;SHT31;68762;51.980;5.646;2024-03-17T15:16:39;16.8;51.9
79187;SHT31;68762;51.980;5.646;2024-03-17T15:19:08;16.8;52.0
79187;SHT31;68762;51.980;5.646;2024-03-17T15:21:37;16.8;52.3
79187;SHT31;68762;51.980;5.646;2024-03-17T15:24:07;16.9;52.0
79187;SHT31;68762;51.980;5.646;2024-03-17T15:26:36;16.9;51.7
79187;SHT31;68762;51.980;5.646;2024-03-17T15:29:06;16.9;52.3
79187;SHT31;68762;51.980;5.646;2024-03-17T15:31:35;16.9;51.7
79187;SHT31;68762;51.980;5.646;2024-03-17T15:34:06;16.9;51.6
79187;SHT31;68762;51.980;5.646;2024-03-17T15:36:35;16.9;51.8
79187;SHT31;68762;51.980;5.646;2024-03-17T15:39:05;16.9;52.0
79187;SHT31;68762;51.980;5.646;2024-03-17T15:41:37;16.9;51.8
79187;SHT31;68762;51.980;5.646;2024-03-17T15:44:06;16.9;52.2
79187;SHT31;68762;51.980;5.646;2024-03-17T15:46:37;16.9;51.9
79187;SHT31;68762;51.980;5.646;2024-03-17T15:49:06;16.8;51.8
79187;SHT31;68762;51.980;5.646;2024-03-17T15:51:36;16.8;52.3
79187;SHT31;68762;51.980;5.646;2024-03-17T15:54:05;16.8;52.4
79187;SHT31;68762;51.980;5.646;2024-03-17T15:56:33;16.8;52.6
79187;SHT31;68762;51.980;5.646;2024-03-17T15:59:02;16.7;53.3
79187;SHT31;68762;51.980;5.646;2024-03-17T16:01:30;16.7;53.1
79187;SHT31;68762;51.980;5.646;2024-03-17T16:03:59;16.7;52.9
79187;SHT31;68762;51.980;5.646;2024-03-17T16:06:30;16.7;52.8
79187;SHT31;68762;51.980;5.646;2024-03-17T16:09:02;16.7;53.2
79187;SHT31;68762;51.980;5.646;2024-03-17T16:11:31;16.7;53.3
79187;SHT31;68762;51.980;5.646;2024-03-17T16:14:00;16.7;53.4
79187;SHT31;68762;51.980;5.646;2024-03-17T16:16:30;16.6;53.7
79187;SHT31;68762;51.980;5.646;2024-03-17T16:18:59;16.6;53.5
79187;SHT31;68762;51.980;5.646;2024-03-17T16:21:29;16.6;53.6
79187;SHT31;68762;51.980;5.646;2024-03-17T16:24:01;16.6;53.8
79187;SHT31;68762;51.980;5.646;2024-03-17T16:26:31;16.6;53.7
79187;SHT31;68762;51.980;5.646;2024-03-17T16:29:03;16.6;53.9
79187;SHT31;68762;51.980;5.646;2024-03-17T16:31:33;16.5;54.0
79187;SHT31;68762;51.980;5.646;2024-03-17T16:34:01;16.5;53.6
79187;SHT31;68762;51.980;5.646;2024-03-17T16:36:32;16.5;54.0